sensor_id;sensor_type;location;lat;lon;timestamp;P1;durP1;ratioP1;P2;durP2;ratioP2
79438;SDS011;68889;48.232;10.110;2023-04-25T00:01:03;3.33;;;2.08;;
79438;SDS011;68889;48.232;10.110;2023-04-25T00:03:30;5.43;;;2.72;;
79438;SDS011;68889;48.232;10.110;2023-04-25T00:08:22;3.92;;;2.50;;
79438;SDS011;68889;48.232;10.110;2023-04-25T00:10:48;4.35;;;2.50;;
79438;SDS011;68889;48.232;10.110;2023-04-25T00:13:14;3.75;;;2.40;;
79438;SDS011;68889;48.232;10.110;2023-04-25T00:15:42;3.33;;;2.20;;
79438;SDS011;68889;48.232;10.110;2023-04-25T00:18:08;3.88;;;2.13;;
79438;SDS011;68889;48.232;10.110;2023-04-25T00:20:36;4.30;;;2.80;;
79438;SDS011;68889;48.232;10.110;2023-04-25T00:23:01;7.47;;;2.80;;
79438;SDS011;68889;48.232;10.110;2023-04-25T00:25:27;4.15;;;2.45;;
79438;SDS011;68889;48.232;10.110;2023-04-25T00:27:52;4.07;;;2.40;;
79438;SDS011;68889;48.232;10.110;2023-04-25T00:30:18;4.90;;;2.20;;
79438;SDS011;68889;48.232;10.110;2023-04-25T00:32:43;3.75;;;2.35;;
79438;SDS011;68889;48.232;10.110;2023-04-25T00:35:09;3.85;;;2.35;;
79438;SDS011;68889;48.232;10.110;2023-04-25T00:37:35;5.32;;;2.95;;
79438;SDS011;68889;48.232;10.110;2023-04-25T00:40:00;4.80;;;2.22;;
79438;SDS011;68889;48.232;10.110;2023-04-25T00:42:26;5.82;;;2.70;;
79438;SDS011;68889;48.232;10.110;2023-04-25T00:49:44;4.93;;;2.42;;
79438;SDS011;68889;48.232;10.110;2023-04-25T00:52:09;3.28;;;2.10;;
79438;SDS011;68889;48.232;10.110;2023-04-25T00:54:35;4.22;;;2.20;;
79438;SDS011;68889;48.232;10.110;2023-04-25T00:57:01;3.25;;;2.30;;
79438;SDS011;68889;48.232;10.110;2023-04-25T00:59:28;3.58;;;2.42;;
79438;SDS011;68889;48.232;10.110;2023-04-25T01:01:54;4.25;;;2.70;;
79438;SDS011;68889;48.232;10.110;2023-04-25T01:04:20;4.65;;;2.42;;
79438;SDS011;68889;48.232;10.110;2023-04-25T01:06:46;3.83;;;2.33;;
79438;SDS011;68889;48.232;10.110;2023-04-25T01:09:13;4.13;;;2.42;;
79438;SDS011;68889;48.232;10.110;2023-04-25T01:11:39;5.63;;;2.40;;
79438;SDS011;68889;48.232;10.110;2023-04-25T01:14:05;5.35;;;2.30;;
79438;SDS011;68889;48.232;10.110;2023-04-25T01:16:31;4.43;;;2.60;;
79438;SDS011;68889;48.232;10.110;2023-04-25T01:18:57;4.53;;;2.50;;
79438;SDS011;68889;48.232;10.110;2023-04-25T01:21:22;4.45;;;2.40;;
79438;SDS011;68889;48.232;10.110;2023-04-25T01:23:51;3.92;;;2.50;;
79438;SDS011;68889;48.232;10.110;2023-04-25T01:26:17;4.15;;;2.63;;
79438;SDS011;68889;48.232;10.110;2023-04-25T01:28:43;4.57;;;2.50;;
79438;SDS011;68889;48.232;10.110;2023-04-25T01:31:09;4.07;;;2.53;;
79438;SDS011;68889;48.232;10.110;2023-04-25T01:33:36;5.32;;;2.67;;
79438;SDS011;68889;48.232;10.110;2023-04-25T01:36:01;4.35;;;2.35;;
79438;SDS011;68889;48.232;10.110;2023-04-25T01:38:27;4.90;;;2.45;;
79438;SDS011;68889;48.232;10.110;2023-04-25T01:40:53;5.15;;;2.17;;
79438;SDS011;68889;48.232;10.110;2023-04-25T01:43:19;3.22;;;2.05;;
79438;SDS011;68889;48.232;10.110;2023-04-25T01:45:45;4.15;;;2.08;;
79438;SDS011;68889;48.232;10.110;2023-04-25T01:48:12;2.97;;;2.10;;
79438;SDS011;68889;48.232;10.110;2023-04-25T01:50:39;3.03;;;1.75;;
79438;SDS011;68889;48.232;10.110;2023-04-25T01:53:05;3.90;;;1.90;;
79438;SDS011;68889;48.232;10.110;2023-04-25T01:55:31;2.90;;;1.75;;
79438;SDS011;68889;48.232;10.110;2023-04-25T01:57:56;2.75;;;1.90;;
79438;SDS011;68889;48.232;10.110;2023-04-25T02:00:23;5.55;;;2.40;;
79438;SDS011;68889;48.232;10.110;2023-04-25T02:02:49;4.25;;;1.90;;
79438;SDS011;68889;48.232;10.110;2023-04-25T02:05:16;3.42;;;2.40;;
79438;SDS011;68889;48.232;10.110;2023-04-25T02:07:42;2.33;;;1.50;;
79438;SDS011;68889;48.232;10.110;2023-04-25T02:10:08;3.97;;;1.58;;
79438;SDS011;68889;48.232;10.110;2023-04-25T02:12:34;3.85;;;1.90;;
79438;SDS011;68889;48.232;10.110;2023-04-25T02:15:00;3.78;;;1.90;;
79438;SDS011;68889;48.232;10.110;2023-04-25T02:17:26;3.50;;;2.03;;
79438;SDS011;68889;48.232;10.110;2023-04-25T02:19:52;5.13;;;1.83;;
79438;SDS011;68889;48.232;10.110;2023-04-25T02:22:17;2.47;;;1.58;;
79438;SDS011;68889;48.232;10.110;2023-04-25T02:24:43;4.75;;;1.80;;
79438;SDS011;68889;48.232;10.110;2023-04-25T02:27:08;2.40;;;1.50;;
79438;SDS011;68889;48.232;10.110;2023-04-25T02:29:34;2.05;;;1.40;;
79438;SDS011;68889;48.232;10.110;2023-04-25T02:31:59;3.67;;;1.40;;
79438;SDS011;68889;48.232;10.110;2023-04-25T02:34:25;2.42;;;1.30;;
79438;SDS011;68889;48.232;10.110;2023-04-25T02:36:51;2.65;;;1.30;;
79438;SDS011;68889;48.232;10.110;2023-04-25T02:39:16;3.00;;;1.30;;
79438;SDS011;68889;48.232;10.110;2023-04-25T02:41:42;1.90;;;1.20;;
79438;SDS011;68889;48.232;10.110;2023-04-25T02:44:07;2.22;;;1.40;;
79438;SDS011;68889;48.232;10.110;2023-04-25T02:46:33;2.90;;;1.30;;
79438;SDS011;68889;48.232;10.110;2023-04-25T02:48:58;3.60;;;1.80;;
79438;SDS011;68889;48.232;10.110;2023-04-25T02:51:24;2.38;;;1.30;;
79438;SDS011;68889;48.232;10.110;2023-04-25T02:53:51;3.70;;;1.35;;
79438;SDS011;68889;48.232;10.110;2023-04-25T02:56:16;2.75;;;2.00;;
79438;SDS011;68889;48.232;10.110;2023-04-25T02:58:42;1.98;;;1.38;;
79438;SDS011;68889;48.232;10.110;2023-04-25T03:01:07;2.30;;;1.10;;
79438;SDS011;68889;48.232;10.110;2023-04-25T03:03:33;3.78;;;1.50;;
79438;SDS011;68889;48.232;10.110;2023-04-25T03:05:58;2.50;;;1.63;;
79438;SDS011;68889;48.232;10.110;2023-04-25T03:08:24;2.63;;;1.73;;
79438;SDS011;68889;48.232;10.110;2023-04-25T03:10:51;4.32;;;1.75;;
79438;SDS011;68889;48.232;10.110;2023-04-25T03:13:20;2.95;;;1.52;;
79438;SDS011;68889;48.232;10.110;2023-04-25T03:15:45;3.05;;;1.75;;
79438;SDS011;68889;48.232;10.110;2023-04-25T03:18:11;3.72;;;1.92;;
79438;SDS011;68889;48.232;10.110;2023-04-25T03:20:36;3.40;;;1.50;;
79438;SDS011;68889;48.232;10.110;2023-04-25T03:23:04;2.58;;;1.65;;
79438;SDS011;68889;48.232;10.110;2023-04-25T03:25:29;4.25;;;1.88;;
79438;SDS011;68889;48.232;10.110;2023-04-25T03:27:55;3.20;;;2.17;;
79438;SDS011;68889;48.232;10.110;2023-04-25T03:30:20;3.25;;;1.50;;
79438;SDS011;68889;48.232;10.110;2023-04-25T03:32:46;2.95;;;1.70;;
79438;SDS011;68889;48.232;10.110;2023-04-25T03:35:11;5.82;;;1.70;;
79438;SDS011;68889;48.232;10.110;2023-04-25T03:37:37;4.00;;;1.80;;
79438;SDS011;68889;48.232;10.110;2023-04-25T03:40:03;3.63;;;1.83;;
79438;SDS011;68889;48.232;10.110;2023-04-25T03:42:29;3.38;;;1.75;;
79438;SDS011;68889;48.232;10.110;2023-04-25T03:44:54;4.60;;;1.83;;
79438;SDS011;68889;48.232;10.110;2023-04-25T03:47:20;4.57;;;1.92;;
79438;SDS011;68889;48.232;10.110;2023-04-25T03:49:45;3.90;;;2.20;;
79438;SDS011;68889;48.232;10.110;2023-04-25T03:52:11;6.05;;;2.30;;
79438;SDS011;68889;48.232;10.110;2023-04-25T03:54:37;5.43;;;1.90;;
79438;SDS011;68889;48.232;10.110;2023-04-25T03:57:02;3.33;;;1.95;;
79438;SDS011;68889;48.232;10.110;2023-04-25T03:59:28;4.05;;;2.05;;
79438;SDS011;68889;48.232;10.110;2023-04-25T04:01:53;5.90;;;2.03;;
79438;SDS011;68889;48.232;10.110;2023-04-25T04:04:19;5.78;;;2.35;;
79438;SDS011;68889;48.232;10.110;2023-04-25T04:06:45;4.63;;;2.28;;
79438;SDS011;68889;48.232;10.110;2023-04-25T04:09:10;4.63;;;2.47;;
79438;SDS011;68889;48.232;10.110;2023-04-25T04:11:37;2.95;;;1.75;;
79438;SDS011;68889;48.232;10.110;2023-04-25T04:14:06;2.80;;;1.48;;
79438;SDS011;68889;48.232;10.110;2023-04-25T04:16:32;3.47;;;1.77;;
79438;SDS011;68889;48.232;10.110;2023-04-25T04:18:58;3.47;;;1.77;;
79438;SDS011;68889;48.232;10.110;2023-04-25T04:21:23;4.05;;;1.92;;
79438;SDS011;68889;48.232;10.110;2023-04-25T04:23:49;5.55;;;1.75;;
79438;SDS011;68889;48.232;10.110;2023-04-25T04:26:15;3.17;;;1.80;;
79438;SDS011;68889;48.232;10.110;2023-04-25T04:28:43;3.60;;;1.80;;
79438;SDS011;68889;48.232;10.110;2023-04-25T04:31:09;3.80;;;2.20;;
79438;SDS011;68889;48.232;10.110;2023-04-25T04:33:35;4.65;;;2.00;;
79438;SDS011;68889;48.232;10.110;2023-04-25T04:36:01;6.45;;;2.30;;
79438;SDS011;68889;48.232;10.110;2023-04-25T04:38:28;3.95;;;2.15;;
79438;SDS011;68889;48.232;10.110;2023-04-25T04:40:55;3.88;;;2.20;;
79438;SDS011;68889;48.232;10.110;2023-04-25T04:43:20;4.80;;;2.22;;
79438;SDS011;68889;48.232;10.110;2023-04-25T04:45:47;4.50;;;2.17;;
79438;SDS011;68889;48.232;10.110;2023-04-25T04:48:14;4.75;;;2.28;;
79438;SDS011;68889;48.232;10.110;2023-04-25T04:50:40;6.90;;;2.65;;
79438;SDS011;68889;48.232;10.110;2023-04-25T04:53:09;5.15;;;2.50;;
79438;SDS011;68889;48.232;10.110;2023-04-25T04:55:35;5.32;;;2.13;;
79438;SDS011;68889;48.232;10.110;2023-04-25T04:58:01;3.90;;;2.10;;
79438;SDS011;68889;48.232;10.110;2023-04-25T05:00:26;6.40;;;2.33;;
79438;SDS011;68889;48.232;10.110;2023-04-25T05:02:52;4.32;;;2.25;;
79438;SDS011;68889;48.232;10.110;2023-04-25T05:05:18;4.07;;;2.10;;
79438;SDS011;68889;48.232;10.110;2023-04-25T05:07:43;3.38;;;2.10;;
79438;SDS011;68889;48.232;10.110;2023-04-25T05:10:09;3.10;;;1.80;;
79438;SDS011;68889;48.232;10.110;2023-04-25T05:12:35;4.10;;;2.00;;
79438;SDS011;68889;48.232;10.110;2023-04-25T05:15:01;4.25;;;2.05;;
79438;SDS011;68889;48.232;10.110;2023-04-25T05:17:26;6.30;;;1.88;;
79438;SDS011;68889;48.232;10.110;2023-04-25T05:19:52;4.65;;;1.80;;
79438;SDS011;68889;48.232;10.110;2023-04-25T05:22:17;3.50;;;2.05;;
79438;SDS011;68889;48.232;10.110;2023-04-25T05:24:43;4.30;;;1.80;;
79438;SDS011;68889;48.232;10.110;2023-04-25T05:27:09;2.88;;;1.90;;
79438;SDS011;68889;48.232;10.110;2023-04-25T05:29:34;3.75;;;1.95;;
79438;SDS011;68889;48.232;10.110;2023-04-25T05:32:00;4.50;;;2.22;;
79438;SDS011;68889;48.232;10.110;2023-04-25T05:34:25;3.85;;;1.65;;
79438;SDS011;68889;48.232;10.110;2023-04-25T05:36:51;4.22;;;1.65;;
79438;SDS011;68889;48.232;10.110;2023-04-25T05:39:16;3.70;;;1.63;;
79438;SDS011;68889;48.232;10.110;2023-04-25T05:41:42;2.97;;;1.95;;
79438;SDS011;68889;48.232;10.110;2023-04-25T05:44:08;4.03;;;1.75;;
79438;SDS011;68889;48.232;10.110;2023-04-25T05:46:34;3.72;;;1.52;;
79438;SDS011;68889;48.232;10.110;2023-04-25T05:48:59;3.70;;;1.77;;
79438;SDS011;68889;48.232;10.110;2023-04-25T05:51:25;3.25;;;1.63;;
79438;SDS011;68889;48.232;10.110;2023-04-25T05:53:50;3.75;;;2.10;;
79438;SDS011;68889;48.232;10.110;2023-04-25T05:56:16;2.88;;;1.65;;
79438;SDS011;68889;48.232;10.110;2023-04-25T05:58:42;3.47;;;1.63;;
79438;SDS011;68889;48.232;10.110;2023-04-25T06:01:07;2.83;;;1.35;;
79438;SDS011;68889;48.232;10.110;2023-04-25T06:03:33;3.33;;;1.73;;
79438;SDS011;68889;48.232;10.110;2023-04-25T06:05:59;4.03;;;1.63;;
79438;SDS011;68889;48.232;10.110;2023-04-25T06:08:25;3.45;;;2.10;;
79438;SDS011;68889;48.232;10.110;2023-04-25T06:10:50;4.18;;;1.70;;
79438;SDS011;68889;48.232;10.110;2023-04-25T06:13:16;2.22;;;1.40;;
79438;SDS011;68889;48.232;10.110;2023-04-25T06:15:41;4.88;;;2.42;;
79438;SDS011;68889;48.232;10.110;2023-04-25T06:18:07;6.13;;;2.10;;
79438;SDS011;68889;48.232;10.110;2023-04-25T06:20:33;3.97;;;2.10;;
79438;SDS011;68889;48.232;10.110;2023-04-25T06:22:58;4.03;;;1.77;;
79438;SDS011;68889;48.232;10.110;2023-04-25T06:25:24;5.53;;;2.30;;
79438;SDS011;68889;48.232;10.110;2023-04-25T06:27:50;4.85;;;2.03;;
79438;SDS011;68889;48.232;10.110;2023-04-25T06:30:15;4.88;;;2.28;;
79438;SDS011;68889;48.232;10.110;2023-04-25T06:32:43;5.88;;;2.00;;
79438;SDS011;68889;48.232;10.110;2023-04-25T06:35:08;4.63;;;2.28;;
79438;SDS011;68889;48.232;10.110;2023-04-25T06:37:35;3.30;;;1.90;;
79438;SDS011;68889;48.232;10.110;2023-04-25T06:40:00;4.38;;;1.98;;
79438;SDS011;68889;48.232;10.110;2023-04-25T06:42:26;3.90;;;1.98;;
79438;SDS011;68889;48.232;10.110;2023-04-25T06:44:52;6.28;;;2.30;;
79438;SDS011;68889;48.232;10.110;2023-04-25T06:47:18;5.45;;;2.10;;
79438;SDS011;68889;48.232;10.110;2023-04-25T06:49:43;3.80;;;2.13;;
79438;SDS011;68889;48.232;10.110;2023-04-25T06:52:09;2.90;;;1.90;;
79438;SDS011;68889;48.232;10.110;2023-04-25T06:54:35;4.55;;;2.30;;
79438;SDS011;68889;48.232;10.110;2023-04-25T06:57:01;4.85;;;2.00;;
79438;SDS011;68889;48.232;10.110;2023-04-25T06:59:26;4.43;;;2.03;;
79438;SDS011;68889;48.232;10.110;2023-04-25T07:01:52;4.72;;;1.85;;
79438;SDS011;68889;48.232;10.110;2023-04-25T07:04:17;6.38;;;2.08;;
79438;SDS011;68889;48.232;10.110;2023-04-25T07:06:43;3.95;;;1.98;;
79438;SDS011;68889;48.232;10.110;2023-04-25T07:09:09;4.57;;;1.90;;
79438;SDS011;68889;48.232;10.110;2023-04-25T07:11:35;5.45;;;1.92;;
79438;SDS011;68889;48.232;10.110;2023-04-25T07:14:01;4.57;;;1.67;;
79438;SDS011;68889;48.232;10.110;2023-04-25T07:16:27;4.40;;;2.10;;
79438;SDS011;68889;48.232;10.110;2023-04-25T07:18:53;5.50;;;2.00;;
79438;SDS011;68889;48.232;10.110;2023-04-25T07:21:18;3.80;;;1.75;;
79438;SDS011;68889;48.232;10.110;2023-04-25T07:23:44;4.72;;;1.92;;
79438;SDS011;68889;48.232;10.110;2023-04-25T07:26:10;5.72;;;1.70;;
79438;SDS011;68889;48.232;10.110;2023-04-25T07:28:35;4.90;;;2.83;;
79438;SDS011;68889;48.232;10.110;2023-04-25T07:31:01;3.28;;;1.73;;
79438;SDS011;68889;48.232;10.110;2023-04-25T07:33:27;5.22;;;1.98;;
79438;SDS011;68889;48.232;10.110;2023-04-25T07:35:52;5.25;;;1.98;;
79438;SDS011;68889;48.232;10.110;2023-04-25T07:38:18;4.35;;;1.70;;
79438;SDS011;68889;48.232;10.110;2023-04-25T07:40:44;3.38;;;1.70;;
79438;SDS011;68889;48.232;10.110;2023-04-25T07:43:10;4.53;;;2.13;;
79438;SDS011;68889;48.232;10.110;2023-04-25T07:45:39;5.65;;;1.63;;
79438;SDS011;68889;48.232;10.110;2023-04-25T07:48:04;4.90;;;2.45;;
79438;SDS011;68889;48.232;10.110;2023-04-25T07:50:30;4.20;;;2.10;;
79438;SDS011;68889;48.232;10.110;2023-04-25T07:52:56;4.55;;;2.20;;
79438;SDS011;68889;48.232;10.110;2023-04-25T07:55:21;5.00;;;2.17;;
79438;SDS011;68889;48.232;10.110;2023-04-25T07:57:47;3.10;;;1.90;;
79438;SDS011;68889;48.232;10.110;2023-04-25T08:00:13;3.72;;;1.90;;
79438;SDS011;68889;48.232;10.110;2023-04-25T08:02:39;3.45;;;1.83;;
79438;SDS011;68889;48.232;10.110;2023-04-25T08:05:05;3.30;;;1.70;;
79438;SDS011;68889;48.232;10.110;2023-04-25T08:07:33;4.30;;;1.75;;
79438;SDS011;68889;48.232;10.110;2023-04-25T08:09:58;4.13;;;2.25;;
79438;SDS011;68889;48.232;10.110;2023-04-25T08:12:24;3.65;;;2.05;;
79438;SDS011;68889;48.232;10.110;2023-04-25T08:14:50;3.75;;;1.30;;
79438;SDS011;68889;48.232;10.110;2023-04-25T08:17:15;5.53;;;2.08;;
79438;SDS011;68889;48.232;10.110;2023-04-25T08:19:41;3.92;;;1.73;;
79438;SDS011;68889;48.232;10.110;2023-04-25T08:22:07;6.65;;;2.70;;
79438;SDS011;68889;48.232;10.110;2023-04-25T08:24:32;3.38;;;2.38;;
79438;SDS011;68889;48.232;10.110;2023-04-25T08:26:58;3.53;;;1.50;;
79438;SDS011;68889;48.232;10.110;2023-04-25T08:29:23;2.28;;;1.83;;
79438;SDS011;68889;48.232;10.110;2023-04-25T08:31:50;3.65;;;1.55;;
79438;SDS011;68889;48.232;10.110;2023-04-25T08:34:17;4.13;;;1.65;;
79438;SDS011;68889;48.232;10.110;2023-04-25T08:36:44;6.05;;;3.20;;
79438;SDS011;68889;48.232;10.110;2023-04-25T08:39:10;3.67;;;2.15;;
79438;SDS011;68889;48.232;10.110;2023-04-25T08:41:39;2.13;;;1.50;;
79438;SDS011;68889;48.232;10.110;2023-04-25T08:44:06;3.67;;;2.38;;
79438;SDS011;68889;48.232;10.110;2023-04-25T08:46:34;6.45;;;2.90;;
79438;SDS011;68889;48.232;10.110;2023-04-25T08:49:02;3.90;;;2.30;;
79438;SDS011;68889;48.232;10.110;2023-04-25T08:51:30;4.28;;;1.77;;
79438;SDS011;68889;48.232;10.110;2023-04-25T08:53:57;4.57;;;2.08;;
79438;SDS011;68889;48.232;10.110;2023-04-25T08:56:33;4.93;;;2.25;;
79438;SDS011;68889;48.232;10.110;2023-04-25T08:58:59;4.43;;;2.58;;
79438;SDS011;68889;48.232;10.110;2023-04-25T09:01:26;9.90;;;3.83;;
79438;SDS011;68889;48.232;10.110;2023-04-25T09:03:53;4.75;;;1.83;;
79438;SDS011;68889;48.232;10.110;2023-04-25T09:06:19;5.28;;;1.67;;
79438;SDS011;68889;48.232;10.110;2023-04-25T09:08:45;6.38;;;1.65;;
79438;SDS011;68889;48.232;10.110;2023-04-25T09:11:10;2.78;;;1.15;;
79438;SDS011;68889;48.232;10.110;2023-04-25T09:13:38;3.75;;;1.55;;
79438;SDS011;68889;48.232;10.110;2023-04-25T09:16:04;3.47;;;2.10;;
79438;SDS011;68889;48.232;10.110;2023-04-25T09:18:30;2.00;;;1.15;;
79438;SDS011;68889;48.232;10.110;2023-04-25T09:21:06;2.20;;;1.10;;
79438;SDS011;68889;48.232;10.110;2023-04-25T09:23:43;4.80;;;1.60;;
79438;SDS011;68889;48.232;10.110;2023-04-25T09:28:42;3.58;;;1.48;;
79438;SDS011;68889;48.232;10.110;2023-04-25T09:31:11;2.25;;;1.40;;
79438;SDS011;68889;48.232;10.110;2023-04-25T09:33:37;6.45;;;2.35;;
79438;SDS011;68889;48.232;10.110;2023-04-25T09:36:04;2.95;;;1.88;;
79438;SDS011;68889;48.232;10.110;2023-04-25T09:38:32;4.05;;;1.52;;
79438;SDS011;68889;48.232;10.110;2023-04-25T09:41:06;4.45;;;1.50;;
79438;SDS011;68889;48.232;10.110;2023-04-25T09:43:32;2.88;;;1.30;;
79438;SDS011;68889;48.232;10.110;2023-04-25T09:45:57;2.35;;;1.00;;
79438;SDS011;68889;48.232;10.110;2023-04-25T09:48:25;3.08;;;1.25;;
79438;SDS011;68889;48.232;10.110;2023-04-25T09:53:39;3.70;;;1.48;;
79438;SDS011;68889;48.232;10.110;2023-04-25T09:56:10;2.58;;;1.17;;
79438;SDS011;68889;48.232;10.110;2023-04-25T09:58:37;4.05;;;1.38;;
79438;SDS011;68889;48.232;10.110;2023-04-25T10:01:04;3.72;;;1.35;;
79438;SDS011;68889;48.232;10.110;2023-04-25T10:03:32;2.45;;;1.42;;
79438;SDS011;68889;48.232;10.110;2023-04-25T10:06:00;2.10;;;1.38;;
79438;SDS011;68889;48.232;10.110;2023-04-25T10:08:31;2.72;;;1.23;;
79438;SDS011;68889;48.232;10.110;2023-04-25T10:11:01;2.85;;;1.60;;
79438;SDS011;68889;48.232;10.110;2023-04-25T10:13:32;3.05;;;1.48;;
79438;SDS011;68889;48.232;10.110;2023-04-25T10:18:25;3.40;;;1.52;;
79438;SDS011;68889;48.232;10.110;2023-04-25T10:20:53;4.32;;;1.63;;
79438;SDS011;68889;48.232;10.110;2023-04-25T10:23:23;3.05;;;1.40;;
79438;SDS011;68889;48.232;10.110;2023-04-25T10:25:52;2.70;;;1.70;;
79438;SDS011;68889;48.232;10.110;2023-04-25T10:28:20;3.88;;;1.83;;
79438;SDS011;68889;48.232;10.110;2023-04-25T10:31:06;2.05;;;1.20;;
79438;SDS011;68889;48.232;10.110;2023-04-25T10:33:37;5.13;;;1.77;;
79438;SDS011;68889;48.232;10.110;2023-04-25T10:38:46;1.30;;;0.68;;
79438;SDS011;68889;48.232;10.110;2023-04-25T10:43:41;1.55;;;0.70;;
79438;SDS011;68889;48.232;10.110;2023-04-25T10:46:27;1.35;;;0.80;;
79438;SDS011;68889;48.232;10.110;2023-04-25T10:48:57;1.60;;;0.75;;
79438;SDS011;68889;48.232;10.110;2023-04-25T10:51:25;1.98;;;0.90;;
79438;SDS011;68889;48.232;10.110;2023-04-25T10:56:20;1.65;;;0.90;;
79438;SDS011;68889;48.232;10.110;2023-04-25T10:58:52;2.15;;;1.00;;
79438;SDS011;68889;48.232;10.110;2023-04-25T11:01:35;1.20;;;0.60;;
79438;SDS011;68889;48.232;10.110;2023-04-25T11:04:02;1.33;;;0.60;;
79438;SDS011;68889;48.232;10.110;2023-04-25T11:06:29;1.70;;;0.50;;
79438;SDS011;68889;48.232;10.110;2023-04-25T11:09:37;1.70;;;0.82;;
79438;SDS011;68889;48.232;10.110;2023-04-25T11:12:05;1.27;;;0.80;;
79438;SDS011;68889;48.232;10.110;2023-04-25T11:14:33;1.50;;;0.95;;
79438;SDS011;68889;48.232;10.110;2023-04-25T11:16:59;1.02;;;0.50;;
79438;SDS011;68889;48.232;10.110;2023-04-25T11:19:27;1.00;;;0.47;;
79438;SDS011;68889;48.232;10.110;2023-04-25T11:21:57;1.52;;;0.40;;
79438;SDS011;68889;48.232;10.110;2023-04-25T11:24:30;3.28;;;1.25;;
79438;SDS011;68889;48.232;10.110;2023-04-25T11:27:03;1.23;;;0.50;;
79438;SDS011;68889;48.232;10.110;2023-04-25T11:29:31;1.08;;;0.63;;
79438;SDS011;68889;48.232;10.110;2023-04-25T11:31:57;1.70;;;0.80;;
79438;SDS011;68889;48.232;10.110;2023-04-25T11:34:24;2.75;;;0.60;;
79438;SDS011;68889;48.232;10.110;2023-04-25T11:36:51;1.52;;;0.55;;
79438;SDS011;68889;48.232;10.110;2023-04-25T11:39:18;1.90;;;0.90;;
79438;SDS011;68889;48.232;10.110;2023-04-25T11:41:44;2.13;;;0.70;;
79438;SDS011;68889;48.232;10.110;2023-04-25T11:44:10;1.20;;;0.60;;
79438;SDS011;68889;48.232;10.110;2023-04-25T11:46:36;1.65;;;0.88;;
79438;SDS011;68889;48.232;10.110;2023-04-25T11:49:02;1.15;;;0.60;;
79438;SDS011;68889;48.232;10.110;2023-04-25T11:51:28;2.63;;;1.20;;
79438;SDS011;68889;48.232;10.110;2023-04-25T11:53:55;1.55;;;0.77;;
79438;SDS011;68889;48.232;10.110;2023-04-25T11:56:21;1.30;;;0.70;;
79438;SDS011;68889;48.232;10.110;2023-04-25T11:58:54;0.88;;;0.57;;
79438;SDS011;68889;48.232;10.110;2023-04-25T12:01:29;3.00;;;1.33;;
79438;SDS011;68889;48.232;10.110;2023-04-25T12:06:44;1.80;;;1.02;;
79438;SDS011;68889;48.232;10.110;2023-04-25T12:09:14;1.63;;;0.80;;
79438;SDS011;68889;48.232;10.110;2023-04-25T12:11:47;1.77;;;0.82;;
79438;SDS011;68889;48.232;10.110;2023-04-25T12:14:20;2.42;;;1.20;;
79438;SDS011;68889;48.232;10.110;2023-04-25T12:16:51;2.10;;;1.10;;
79438;SDS011;68889;48.232;10.110;2023-04-25T12:19:18;2.90;;;1.40;;
79438;SDS011;68889;48.232;10.110;2023-04-25T12:21:45;2.65;;;0.90;;
79438;SDS011;68889;48.232;10.110;2023-04-25T12:26:50;2.90;;;1.75;;
79438;SDS011;68889;48.232;10.110;2023-04-25T12:29:27;5.38;;;3.63;;
79438;SDS011;68889;48.232;10.110;2023-04-25T12:31:54;0.70;;;0.50;;
79438;SDS011;68889;48.232;10.110;2023-04-25T12:34:20;2.55;;;1.35;;
79438;SDS011;68889;48.232;10.110;2023-04-25T12:36:46;1.85;;;1.00;;
79438;SDS011;68889;48.232;10.110;2023-04-25T12:39:20;2.63;;;1.23;;
79438;SDS011;68889;48.232;10.110;2023-04-25T12:41:47;2.70;;;0.80;;
79438;SDS011;68889;48.232;10.110;2023-04-25T12:44:13;2.65;;;1.63;;
79438;SDS011;68889;48.232;10.110;2023-04-25T12:46:39;5.32;;;2.33;;
79438;SDS011;68889;48.232;10.110;2023-04-25T12:49:06;1.83;;;1.20;;
79438;SDS011;68889;48.232;10.110;2023-04-25T12:51:33;2.13;;;1.15;;
79438;SDS011;68889;48.232;10.110;2023-04-25T12:53:59;2.25;;;1.17;;
79438;SDS011;68889;48.232;10.110;2023-04-25T12:56:26;1.58;;;0.80;;
79438;SDS011;68889;48.232;10.110;2023-04-25T12:58:52;2.40;;;1.17;;
79438;SDS011;68889;48.232;10.110;2023-04-25T13:01:18;4.53;;;2.97;;
79438;SDS011;68889;48.232;10.110;2023-04-25T13:03:44;2.20;;;1.33;;
79438;SDS011;68889;48.232;10.110;2023-04-25T13:06:10;2.97;;;1.40;;
79438;SDS011;68889;48.232;10.110;2023-04-25T13:08:36;3.38;;;1.80;;
79438;SDS011;68889;48.232;10.110;2023-04-25T13:11:03;2.47;;;1.30;;
79438;SDS011;68889;48.232;10.110;2023-04-25T13:13:29;2.67;;;1.80;;
79438;SDS011;68889;48.232;10.110;2023-04-25T13:15:56;2.55;;;1.80;;
79438;SDS011;68889;48.232;10.110;2023-04-25T13:18:22;1.80;;;1.20;;
79438;SDS011;68889;48.232;10.110;2023-04-25T13:20:51;2.17;;;1.20;;
79438;SDS011;68889;48.232;10.110;2023-04-25T13:23:18;1.80;;;1.17;;
79438;SDS011;68889;48.232;10.110;2023-04-25T13:25:44;1.80;;;1.10;;
79438;SDS011;68889;48.232;10.110;2023-04-25T13:28:09;1.88;;;1.23;;
79438;SDS011;68889;48.232;10.110;2023-04-25T13:30:35;1.35;;;0.95;;
79438;SDS011;68889;48.232;10.110;2023-04-25T13:33:01;3.28;;;1.60;;
79438;SDS011;68889;48.232;10.110;2023-04-25T13:35:28;1.90;;;1.20;;
79438;SDS011;68889;48.232;10.110;2023-04-25T13:37:55;2.53;;;1.65;;
79438;SDS011;68889;48.232;10.110;2023-04-25T13:40:21;3.75;;;2.40;;
79438;SDS011;68889;48.232;10.110;2023-04-25T13:42:46;3.13;;;2.10;;
79438;SDS011;68889;48.232;10.110;2023-04-25T13:45:12;2.13;;;1.33;;
79438;SDS011;68889;48.232;10.110;2023-04-25T13:47:38;8.02;;;5.03;;
79438;SDS011;68889;48.232;10.110;2023-04-25T13:50:04;6.72;;;4.30;;
79438;SDS011;68889;48.232;10.110;2023-04-25T13:52:32;3.97;;;2.42;;
79438;SDS011;68889;48.232;10.110;2023-04-25T13:54:58;5.22;;;3.35;;
79438;SDS011;68889;48.232;10.110;2023-04-25T13:57:24;3.22;;;1.80;;
79438;SDS011;68889;48.232;10.110;2023-04-25T13:59:50;8.35;;;4.78;;
79438;SDS011;68889;48.232;10.110;2023-04-25T14:02:16;2.13;;;1.13;;
79438;SDS011;68889;48.232;10.110;2023-04-25T14:04:41;1.35;;;0.80;;
79438;SDS011;68889;48.232;10.110;2023-04-25T14:07:07;1.92;;;1.33;;
79438;SDS011;68889;48.232;10.110;2023-04-25T14:09:33;3.60;;;2.33;;
79438;SDS011;68889;48.232;10.110;2023-04-25T14:11:59;3.40;;;1.95;;
79438;SDS011;68889;48.232;10.110;2023-04-25T14:14:25;0.82;;;0.50;;
79438;SDS011;68889;48.232;10.110;2023-04-25T14:16:51;0.68;;;0.30;;
79438;SDS011;68889;48.232;10.110;2023-04-25T14:19:18;2.42;;;1.00;;
79438;SDS011;68889;48.232;10.110;2023-04-25T14:21:45;2.92;;;1.80;;
79438;SDS011;68889;48.232;10.110;2023-04-25T14:24:11;1.58;;;0.73;;
79438;SDS011;68889;48.232;10.110;2023-04-25T14:26:37;1.70;;;0.90;;
79438;SDS011;68889;48.232;10.110;2023-04-25T14:29:04;1.58;;;0.70;;
79438;SDS011;68889;48.232;10.110;2023-04-25T14:31:30;0.68;;;0.40;;
79438;SDS011;68889;48.232;10.110;2023-04-25T14:33:56;0.60;;;0.40;;
79438;SDS011;68889;48.232;10.110;2023-04-25T14:36:22;1.20;;;0.50;;
79438;SDS011;68889;48.232;10.110;2023-04-25T14:38:47;1.05;;;0.47;;
79438;SDS011;68889;48.232;10.110;2023-04-25T14:41:13;1.95;;;0.70;;
79438;SDS011;68889;48.232;10.110;2023-04-25T14:43:38;1.60;;;1.00;;
79438;SDS011;68889;48.232;10.110;2023-04-25T14:46:08;1.20;;;0.70;;
79438;SDS011;68889;48.232;10.110;2023-04-25T14:48:35;1.70;;;0.80;;
79438;SDS011;68889;48.232;10.110;2023-04-25T14:51:01;1.20;;;0.60;;
79438;SDS011;68889;48.232;10.110;2023-04-25T14:53:27;2.35;;;0.73;;
79438;SDS011;68889;48.232;10.110;2023-04-25T14:55:52;1.30;;;0.63;;
79438;SDS011;68889;48.232;10.110;2023-04-25T14:58:18;1.10;;;0.52;;